sensor_id;sensor_type;location;lat;lon;timestamp;pressure;altitude;pressure_sealevel;temperature;humidity
43701;BME280;58809;47.984;7.964;2022-11-15T00:02:02;96966.72;;;8.54;100.00
43701;BME280;58809;47.984;7.964;2022-11-15T00:05:24;96966.50;;;8.55;100.00
43701;BME280;58809;47.984;7.964;2022-11-15T00:08:44;96956.34;;;8.52;100.00
43701;BME280;58809;47.984;7.964;2022-11-15T00:12:04;96955.84;;;8.48;100.00
43701;BME280;58809;47.984;7.964;2022-11-15T00:15:24;96957.47;;;8.50;100.00
43701;BME280;58809;47.984;7.964;2022-11-15T00:18:44;96954.69;;;8.51;100.00
43701;BME280;58809;47.984;7.964;2022-11-15T00:22:09;96952.69;;;8.53;100.00
43701;BME280;58809;47.984;7.964;2022-11-15T00:25:30;96951.69;;;8.54;100.00
43701;BME280;58809;47.984;7.964;2022-11-15T00:28:52;96940.16;;;8.55;100.00
43701;BME280;58809;47.984;7.964;2022-11-15T00:32:12;96939.88;;;8.50;100.00
43701;BME280;58809;47.984;7.964;2022-11-15T00:35:33;96944.50;;;8.48;100.00
43701;BME280;58809;47.984;7.964;2022-11-15T00:38:53;96937.75;;;8.45;100.00
43701;BME280;58809;47.984;7.964;2022-11-15T00:42:14;96935.75;;;8.47;100.00
43701;BME280;58809;47.984;7.964;2022-11-15T00:45:33;96931.16;;;8.41;100.00
43701;BME280;58809;47.984;7.964;2022-11-15T00:48:54;96935.44;;;8.42;100.00
43701;BME280;58809;47.984;7.964;2022-11-15T00:52:14;96940.38;;;8.45;100.00
43701;BME280;58809;47.984;7.964;2022-11-15T00:55:34;96927.19;;;8.45;100.00
43701;BME280;58809;47.984;7.964;2022-11-15T00:58:54;96934.13;;;8.46;100.00
43701;BME280;58809;47.984;7.964;2022-11-15T01:02:14;96927.84;;;8.47;100.00
43701;BME280;58809;47.984;7.964;2022-11-15T01:05:37;96928.69;;;8.48;100.00
43701;BME280;58809;47.984;7.964;2022-11-15T01:08:57;96927.16;;;8.54;100.00
43701;BME280;58809;47.984;7.964;2022-11-15T01:12:17;96915.25;;;8.58;100.00
43701;BME280;58809;47.984;7.964;2022-11-15T01:15:40;96922.13;;;8.67;100.00
43701;BME280;58809;47.984;7.964;2022-11-15T01:19:01;96919.22;;;8.77;100.00
43701;BME280;58809;47.984;7.964;2022-11-15T01:22:21;96921.69;;;8.78;100.00
43701;BME280;58809;47.984;7.964;2022-11-15T01:25:41;96912.59;;;8.81;100.00
43701;BME280;58809;47.984;7.964;2022-11-15T01:29:01;96912.25;;;8.84;100.00
43701;BME280;58809;47.984;7.964;2022-11-15T01:32:21;96911.53;;;8.90;100.00
43701;BME280;58809;47.984;7.964;2022-11-15T01:35:41;96926.84;;;8.95;100.00
43701;BME280;58809;47.984;7.964;2022-11-15T01:39:01;96929.94;;;8.98;100.00
43701;BME280;58809;47.984;7.964;2022-11-15T01:42:21;96924.66;;;8.98;100.00
43701;BME280;58809;47.984;7.964;2022-11-15T01:45:41;96920.38;;;8.97;100.00
43701;BME280;58809;47.984;7.964;2022-11-15T01:49:10;96910.19;;;8.94;100.00
43701;BME280;58809;47.984;7.964;2022-11-15T01:52:33;96903.56;;;8.98;100.00
43701;BME280;58809;47.984;7.964;2022-11-15T01:55:55;96896.63;;;8.97;100.00
43701;BME280;58809;47.984;7.964;2022-11-15T01:59:15;96888.06;;;8.95;100.00
43701;BME280;58809;47.984;7.964;2022-11-15T02:02:36;96898.63;;;8.95;100.00
43701;BME280;58809;47.984;7.964;2022-11-15T02:05:57;96896.16;;;8.94;100.00
43701;BME280;58809;47.984;7.964;2022-11-15T02:09:18;96895.34;;;8.93;100.00
43701;BME280;58809;47.984;7.964;2022-11-15T02:12:38;96886.63;;;8.93;100.00
43701;BME280;58809;47.984;7.964;2022-11-15T02:23:32;96871.53;;;9.01;100.00
43701;BME280;58809;47.984;7.964;2022-11-15T02:30:45;96872.00;;;9.05;100.00
43701;BME280;58809;47.984;7.964;2022-11-15T02:37:48;96870.47;;;9.11;100.00
43701;BME280;58809;47.984;7.964;2022-11-15T02:41:27;96863.72;;;9.08;100.00
43701;BME280;58809;47.984;7.964;2022-11-15T02:44:51;96854.00;;;9.09;100.00
43701;BME280;58809;47.984;7.964;2022-11-15T02:48:14;96863.53;;;9.10;100.00
43701;BME280;58809;47.984;7.964;2022-11-15T02:51:35;96849.34;;;9.11;100.00
43701;BME280;58809;47.984;7.964;2022-11-15T02:54:56;96850.97;;;9.12;100.00
43701;BME280;58809;47.984;7.964;2022-11-15T03:05:44;96838.06;;;9.17;100.00
43701;BME280;58809;47.984;7.964;2022-11-15T03:12:43;96834.78;;;9.15;100.00
43701;BME280;58809;47.984;7.964;2022-11-15T03:16:15;96835.59;;;9.15;100.00
43701;BME280;58809;47.984;7.964;2022-11-15T03:19:47;96834.78;;;9.15;100.00
43701;BME280;58809;47.984;7.964;2022-11-15T03:23:10;96839.06;;;9.16;100.00
43701;BME280;58809;47.984;7.964;2022-11-15T03:26:31;96830.13;;;9.17;100.00
43701;BME280;58809;47.984;7.964;2022-11-15T03:29:57;96832.03;;;9.23;100.00
43701;BME280;58809;47.984;7.964;2022-11-15T03:33:21;96839.31;;;9.21;100.00
43701;BME280;58809;47.984;7.964;2022-11-15T03:36:41;96839.78;;;9.24;100.00
43701;BME280;58809;47.984;7.964;2022-11-15T03:40:03;96838.63;;;9.27;100.00
43701;BME280;58809;47.984;7.964;2022-11-15T03:43:43;96826.88;;;9.30;100.00
43701;BME280;58809;47.984;7.964;2022-11-15T03:50:34;96817.22;;;9.22;100.00
43701;BME280;58809;47.984;7.964;2022-11-15T03:53:54;96820.31;;;9.25;100.00
43701;BME280;58809;47.984;7.964;2022-11-15T03:57:15;96814.22;;;9.25;100.00
43701;BME280;58809;47.984;7.964;2022-11-15T04:00:35;96807.94;;;9.26;100.00
43701;BME280;58809;47.984;7.964;2022-11-15T04:03:55;96806.94;;;9.27;100.00
43701;BME280;58809;47.984;7.964;2022-11-15T04:07:15;96801.66;;;9.27;100.00
43701;BME280;58809;47.984;7.964;2022-11-15T04:10:36;96804.47;;;9.25;100.00
43701;BME280;58809;47.984;7.964;2022-11-15T04:13:56;96809.75;;;9.25;100.00
43701;BME280;58809;47.984;7.964;2022-11-15T04:17:16;96801.66;;;9.27;100.00
43701;BME280;58809;47.984;7.964;2022-11-15T04:20:36;96798.47;;;9.32;100.00
43701;BME280;58809;47.984;7.964;2022-11-15T04:24:14;96802.56;;;9.34;100.00
43701;BME280;58809;47.984;7.964;2022-11-15T04:27:35;96794.44;;;9.36;100.00
43701;BME280;58809;47.984;7.964;2022-11-15T04:30:55;96790.72;;;9.30;100.00
43701;BME280;58809;47.984;7.964;2022-11-15T04:34:16;96793.56;;;9.29;100.00
43701;BME280;58809;47.984;7.964;2022-11-15T04:37:36;96791.09;;;9.27;100.00
43701;BME280;58809;47.984;7.964;2022-11-15T04:40:56;96799.03;;;9.27;100.00
43701;BME280;58809;47.984;7.964;2022-11-15T04:44:16;96788.47;;;9.27;100.00
43701;BME280;58809;47.984;7.964;2022-11-15T04:47:36;96788.28;;;9.29;100.00
43701;BME280;58809;47.984;7.964;2022-11-15T04:50:56;96796.19;;;9.29;100.00
43701;BME280;58809;47.984;7.964;2022-11-15T04:54:16;96787.25;;;9.30;100.00
43701;BME280;58809;47.984;7.964;2022-11-15T04:57:37;96786.63;;;9.28;100.00
43701;BME280;58809;47.984;7.964;2022-11-15T05:00:57;96773.59;;;9.26;100.00
43701;BME280;58809;47.984;7.964;2022-11-15T05:04:18;96775.91;;;9.29;100.00
43701;BME280;58809;47.984;7.964;2022-11-15T05:07:41;96774.06;;;9.30;100.00
43701;BME280;58809;47.984;7.964;2022-11-15T05:11:01;96769.59;;;9.30;100.00
43701;BME280;58809;47.984;7.964;2022-11-15T05:14:21;96755.03;;;9.34;100.00
43701;BME280;58809;47.984;7.964;2022-11-15T05:17:41;96759.66;;;9.32;100.00
43701;BME280;58809;47.984;7.964;2022-11-15T05:21:10;96762.56;;;9.37;100.00
43701;BME280;58809;47.984;7.964;2022-11-15T05:24:31;96757.13;;;9.39;100.00
43701;BME280;58809;47.984;7.964;2022-11-15T05:27:51;96758.75;;;9.40;100.00
43701;BME280;58809;47.984;7.964;2022-11-15T05:31:14;96750.00;;;9.39;100.00
43701;BME280;58809;47.984;7.964;2022-11-15T05:34:34;96748.19;;;9.40;100.00
43701;BME280;58809;47.984;7.964;2022-11-15T05:37:54;96750.00;;;9.39;100.00
43701;BME280;58809;47.984;7.964;2022-11-15T05:41:17;96760.78;;;9.38;100.00
43701;BME280;58809;47.984;7.964;2022-11-15T05:44:41;96742.56;;;9.28;100.00
43701;BME280;58809;47.984;7.964;2022-11-15T05:48:05;96748.84;;;9.27;100.00
43701;BME280;58809;47.984;7.964;2022-11-15T05:51:28;96741.94;;;9.26;100.00
43701;BME280;58809;47.984;7.964;2022-11-15T05:54:49;96740.09;;;9.27;100.00
43701;BME280;58809;47.984;7.964;2022-11-15T05:58:09;96746.56;;;9.24;100.00
43701;BME280;58809;47.984;7.964;2022-11-15T06:01:30;96750.19;;;9.23;100.00
43701;BME280;58809;47.984;7.964;2022-11-15T06:04:50;96747.56;;;9.23;100.00
43701;BME280;58809;47.984;7.964;2022-11-15T06:08:10;96746.75;;;9.22;100.00
43701;BME280;58809;47.984;7.964;2022-11-15T06:11:30;96747.09;;;9.19;100.00
43701;BME280;58809;47.984;7.964;2022-11-15T06:14:50;96756.06;;;9.18;100.00
43701;BME280;58809;47.984;7.964;2022-11-15T06:18:38;96744.41;;;9.13;100.00
43701;BME280;58809;47.984;7.964;2022-11-15T06:21:57;96751.97;;;9.16;100.00
43701;BME280;58809;47.984;7.964;2022-11-15T06:25:17;96741.19;;;9.17;100.00
43701;BME280;58809;47.984;7.964;2022-11-15T06:28:37;96739.19;;;9.19;100.00
43701;BME280;58809;47.984;7.964;2022-11-15T06:31:57;96746.56;;;9.24;100.00
43701;BME280;58809;47.984;7.964;2022-11-15T06:35:17;96745.59;;;9.25;100.00
43701;BME280;58809;47.984;7.964;2022-11-15T06:38:37;96733.00;;;9.27;100.00
43701;BME280;58809;47.984;7.964;2022-11-15T06:41:57;96740.75;;;9.29;100.00
43701;BME280;58809;47.984;7.964;2022-11-15T06:45:17;96745.19;;;9.28;100.00
43701;BME280;58809;47.984;7.964;2022-11-15T06:48:37;96739.09;;;9.28;100.00
43701;BME280;58809;47.984;7.964;2022-11-15T06:51:57;96733.91;;;9.19;100.00
43701;BME280;58809;47.984;7.964;2022-11-15T06:55:18;96726.44;;;9.23;100.00
43701;BME280;58809;47.984;7.964;2022-11-15T06:58:38;96737.53;;;9.33;100.00
43701;BME280;58809;47.984;7.964;2022-11-15T07:01:58;96730.63;;;9.32;100.00
43701;BME280;58809;47.984;7.964;2022-11-15T07:05:18;96733.72;;;9.36;100.00
43701;BME280;58809;47.984;7.964;2022-11-15T07:08:38;96733.16;;;9.40;100.00
43701;BME280;58809;47.984;7.964;2022-11-15T07:11:58;96731.91;;;9.36;100.00
43701;BME280;58809;47.984;7.964;2022-11-15T07:15:26;96736.00;;;9.39;100.00
43701;BME280;58809;47.984;7.964;2022-11-15T07:18:46;96730.72;;;9.39;100.00
43701;BME280;58809;47.984;7.964;2022-11-15T07:22:06;96731.69;;;9.53;100.00
43701;BME280;58809;47.984;7.964;2022-11-15T07:25:26;96726.84;;;9.56;100.00
43701;BME280;58809;47.984;7.964;2022-11-15T07:28:46;96737.88;;;9.60;100.00
43701;BME280;58809;47.984;7.964;2022-11-15T07:32:06;96735.88;;;9.62;100.00
43701;BME280;58809;47.984;7.964;2022-11-15T07:35:28;96739.00;;;9.51;100.00
43701;BME280;58809;47.984;7.964;2022-11-15T07:38:48;96729.88;;;9.53;100.00
43701;BME280;58809;47.984;7.964;2022-11-15T07:42:09;96733.41;;;9.60;100.00
43701;BME280;58809;47.984;7.964;2022-11-15T07:45:47;96744.88;;;9.68;100.00
43701;BME280;58809;47.984;7.964;2022-11-15T07:49:08;96733.97;;;9.77;100.00
43701;BME280;58809;47.984;7.964;2022-11-15T07:52:28;96734.88;;;9.85;100.00
43701;BME280;58809;47.984;7.964;2022-11-15T07:55:48;96734.25;;;9.82;100.00
43701;BME280;58809;47.984;7.964;2022-11-15T07:59:08;96724.94;;;9.87;100.00
43701;BME280;58809;47.984;7.964;2022-11-15T08:02:28;96738.59;;;9.90;100.00
43701;BME280;58809;47.984;7.964;2022-11-15T08:05:51;96735.84;;;9.98;100.00
43701;BME280;58809;47.984;7.964;2022-11-15T08:09:11;96734.75;;;10.14;100.00
43701;BME280;58809;47.984;7.964;2022-11-15T08:12:32;96729.97;;;10.25;100.00
43701;BME280;58809;47.984;7.964;2022-11-15T08:15:57;96725.56;;;10.32;100.00
43701;BME280;58809;47.984;7.964;2022-11-15T08:19:18;96724.19;;;10.36;100.00
43701;BME280;58809;47.984;7.964;2022-11-15T08:22:38;96726.25;;;10.40;100.00
43701;BME280;58809;47.984;7.964;2022-11-15T08:26:02;96723.66;;;10.47;100.00
43701;BME280;58809;47.984;7.964;2022-11-15T08:29:22;96722.06;;;10.53;100.00
43701;BME280;58809;47.984;7.964;2022-11-15T08:32:42;96723.78;;;10.61;100.00
43701;BME280;58809;47.984;7.964;2022-11-15T08:36:03;96722.81;;;10.68;100.00
43701;BME280;58809;47.984;7.964;2022-11-15T08:39:23;96721.22;;;10.74;100.00
43701;BME280;58809;47.984;7.964;2022-11-15T08:42:45;96714.06;;;10.74;100.00
43701;BME280;58809;47.984;7.964;2022-11-15T08:46:10;96706.75;;;10.76;100.00
43701;BME280;58809;47.984;7.964;2022-11-15T08:49:31;96710.06;;;10.85;100.00
43701;BME280;58809;47.984;7.964;2022-11-15T08:52:51;96712.16;;;10.90;100.00
43701;BME280;58809;47.984;7.964;2022-11-15T08:56:13;96708.47;;;10.91;100.00
43701;BME280;58809;47.984;7.964;2022-11-15T08:59:33;96706.63;;;10.91;100.00
43701;BME280;58809;47.984;7.964;2022-11-15T09:02:53;96711.34;;;10.96;100.00
43701;BME280;58809;47.984;7.964;2022-11-15T09:06:13;96706.50;;;11.00;100.00
43701;BME280;58809;47.984;7.964;2022-11-15T09:09:33;96695.34;;;11.11;100.00
43701;BME280;58809;47.984;7.964;2022-11-15T09:12:53;96700.44;;;11.12;100.00
43701;BME280;58809;47.984;7.964;2022-11-15T09:16:13;96712.03;;;11.11;100.00
43701;BME280;58809;47.984;7.964;2022-11-15T09:19:34;96707.00;;;11.23;100.00
43701;BME280;58809;47.984;7.964;2022-11-15T09:22:54;96703.19;;;11.32;100.00
43701;BME280;58809;47.984;7.964;2022-11-15T09:26:15;96710.03;;;11.20;100.00
43701;BME280;58809;47.984;7.964;2022-11-15T09:29:35;96712.53;;;11.28;100.00
43701;BME280;58809;47.984;7.964;2022-11-15T09:32:55;96713.34;;;11.35;100.00
43701;BME280;58809;47.984;7.964;2022-11-15T09:36:15;96717.66;;;11.36;100.00
43701;BME280;58809;47.984;7.964;2022-11-15T09:39:36;96718.50;;;11.44;100.00
43701;BME280;58809;47.984;7.964;2022-11-15T09:43:31;96712.81;;;11.53;100.00
43701;BME280;58809;47.984;7.964;2022-11-15T09:50:50;96699.22;;;11.77;100.00
43701;BME280;58809;47.984;7.964;2022-11-15T09:54:23;96702.16;;;11.95;100.00
43701;BME280;58809;47.984;7.964;2022-11-15T10:01:22;96700.13;;;12.17;100.00
43701;BME280;58809;47.984;7.964;2022-11-15T10:04:30;96688.50;;;12.25;100.00
43701;BME280;58809;47.984;7.964;2022-11-15T10:07:46;96694.63;;;12.32;100.00
43701;BME280;58809;47.984;7.964;2022-11-15T10:10:53;96685.22;;;12.49;100.00
43701;BME280;58809;47.984;7.964;2022-11-15T10:14:22;96675.81;;;12.67;100.00
43701;BME280;58809;47.984;7.964;2022-11-15T10:20:30;96671.06;;;12.89;100.00
43701;BME280;58809;47.984;7.964;2022-11-15T10:23:32;96673.69;;;13.02;100.00
43701;BME280;58809;47.984;7.964;2022-11-15T10:26:33;96672.66;;;13.03;100.00
43701;BME280;58809;47.984;7.964;2022-11-15T10:29:35;96662.84;;;13.04;100.00
43701;BME280;58809;47.984;7.964;2022-11-15T10:32:37;96660.00;;;12.99;100.00
43701;BME280;58809;47.984;7.964;2022-11-15T10:35:38;96657.78;;;12.96;100.00
43701;BME280;58809;47.984;7.964;2022-11-15T10:41:51;96642.69;;;12.89;100.00
43701;BME280;58809;47.984;7.964;2022-11-15T10:44:53;96643.03;;;13.00;100.00
43701;BME280;58809;47.984;7.964;2022-11-15T10:48:19;96642.44;;;12.98;100.00
43701;BME280;58809;47.984;7.964;2022-11-15T10:51:26;96640.97;;;13.02;100.00
43701;BME280;58809;47.984;7.964;2022-11-15T10:54:47;96631.19;;;13.02;100.00
43701;BME280;58809;47.984;7.964;2022-11-15T10:57:55;96629.97;;;12.98;100.00
43701;BME280;58809;47.984;7.964;2022-11-15T11:04:17;96620.97;;;13.06;100.00
43701;BME280;58809;47.984;7.964;2022-11-15T11:07:26;96612.75;;;13.14;98.92
43701;BME280;58809;47.984;7.964;2022-11-15T11:10:29;96612.72;;;13.21;95.81
43701;BME280;58809;47.984;7.964;2022-11-15T11:13:51;96602.50;;;13.24;91.20
43701;BME280;58809;47.984;7.964;2022-11-15T11:16:57;96593.06;;;13.28;90.35
43701;BME280;58809;47.984;7.964;2022-11-15T11:20:10;96582.91;;;13.19;90.35
43701;BME280;58809;47.984;7.964;2022-11-15T11:26:39;96575.47;;;13.27;86.66
43701;BME280;58809;47.984;7.964;2022-11-15T11:32:59;96569.47;;;13.45;84.29
43701;BME280;58809;47.984;7.964;2022-11-15T11:52:10;96543.72;;;13.96;88.13
43701;BME280;58809;47.984;7.964;2022-11-15T11:55:17;96540.69;;;13.93;89.46
43701;BME280;58809;47.984;7.964;2022-11-15T11:58:23;96526.66;;;14.04;90.34
43701;BME280;58809;47.984;7.964;2022-11-15T12:01:34;96525.84;;;14.03;91.48
43701;BME280;58809;47.984;7.964;2022-11-15T12:04:45;96509.81;;;14.10;92.03
43701;BME280;58809;47.984;7.964;2022-11-15T12:07:50;96506.56;;;14.08;91.82
43701;BME280;58809;47.984;7.964;2022-11-15T12:17:30;96494.03;;;13.90;94.01
43701;BME280;58809;47.984;7.964;2022-11-15T12:20:40;96479.50;;;13.74;96.16
43701;BME280;58809;47.984;7.964;2022-11-15T12:23:48;96480.72;;;13.72;96.52
43701;BME280;58809;47.984;7.964;2022-11-15T12:26:57;96483.13;;;13.80;96.33
43701;BME280;58809;47.984;7.964;2022-11-15T12:30:07;96466.03;;;13.69;91.71
43701;BME280;58809;47.984;7.964;2022-11-15T12:33:29;96468.41;;;13.77;90.98
43701;BME280;58809;47.984;7.964;2022-11-15T12:36:38;96461.03;;;13.79;92.57
43701;BME280;58809;47.984;7.964;2022-11-15T12:40:20;96450.41;;;13.79;93.02
43701;BME280;58809;47.984;7.964;2022-11-15T12:43:36;96439.97;;;13.78;92.59
43701;BME280;58809;47.984;7.964;2022-11-15T12:56:22;96444.91;;;13.56;97.26
43701;BME280;58809;47.984;7.964;2022-11-15T12:59:53;96444.94;;;13.49;97.42
43701;BME280;58809;47.984;7.964;2022-11-15T13:03:17;96439.47;;;13.44;97.51
43701;BME280;58809;47.984;7.964;2022-11-15T13:06:43;96433.13;;;13.45;98.30
43701;BME280;58809;47.984;7.964;2022-11-15T13:12:49;96421.75;;;13.38;100.00
43701;BME280;58809;47.984;7.964;2022-11-15T13:15:53;96421.56;;;13.33;100.00
43701;BME280;58809;47.984;7.964;2022-11-15T13:18:58;96414.00;;;13.29;100.00
43701;BME280;58809;47.984;7.964;2022-11-15T13:22:04;96409.13;;;13.26;100.00
43701;BME280;58809;47.984;7.964;2022-11-15T13:28:47;96386.25;;;13.00;100.00
43701;BME280;58809;47.984;7.964;2022-11-15T13:31:50;96387.28;;;12.99;100.00
43701;BME280;58809;47.984;7.964;2022-11-15T13:34:53;96382.19;;;12.98;100.00
43701;BME280;58809;47.984;7.964;2022-11-15T13:37:55;96378.94;;;12.96;100.00
43701;BME280;58809;47.984;7.964;2022-11-15T13:40:59;96377.16;;;12.89;100.00
43701;BME280;58809;47.984;7.964;2022-11-15T13:44:02;96374.53;;;12.83;100.00
43701;BME280;58809;47.984;7.964;2022-11-15T13:47:14;96367.28;;;12.71;100.00
43701;BME280;58809;47.984;7.964;2022-11-15T13:50:15;96352.84;;;12.61;100.00
43701;BME280;58809;47.984;7.964;2022-11-15T13:53:17;96353.47;;;12.56;100.00
43701;BME280;58809;47.984;7.964;2022-11-15T13:56:20;96349.81;;;12.57;100.00
43701;BME280;58809;47.984;7.964;2022-11-15T13:59:27;96341.47;;;12.54;100.00
43701;BME280;58809;47.984;7.964;2022-11-15T14:02:32;96342.47;;;12.52;100.00
43701;BME280;58809;47.984;7.964;2022-11-15T14:05:34;96338.22;;;12.51;100.00
43701;BME280;58809;47.984;7.964;2022-11-15T14:08:36;96337.41;;;12.51;100.00
43701;BME280;58809;47.984;7.964;2022-11-15T14:11:52;96327.53;;;12.58;100.00
43701;BME280;58809;47.984;7.964;2022-11-15T14:14:55;96328.53;;;12.64;100.00
43701;BME280;58809;47.984;7.964;2022-11-15T14:17:57;96319.72;;;12.70;100.00
43701;BME280;58809;47.984;7.964;2022-11-15T14:21:06;96320.63;;;12.82;100.00
43701;BME280;58809;47.984;7.964;2022-11-15T14:24:20;96309.34;;;12.87;100.00
43701;BME280;58809;47.984;7.964;2022-11-15T14:27:27;96305.22;;;12.91;100.00
43701;BME280;58809;47.984;7.964;2022-11-15T14:30:29;96302.31;;;12.99;100.00
43701;BME280;58809;47.984;7.964;2022-11-15T14:33:37;96297.59;;;13.01;100.00
43701;BME280;58809;47.984;7.964;2022-11-15T14:36:38;96299.22;;;13.02;100.00
43701;BME280;58809;47.984;7.964;2022-11-15T14:39:40;96286.97;;;13.01;100.00
43701;BME280;58809;47.984;7.964;2022-11-15T14:42:43;96276.97;;;12.97;100.00
43701;BME280;58809;47.984;7.964;2022-11-15T14:45:45;96282.59;;;12.88;100.00
43701;BME280;58809;47.984;7.964;2022-11-15T14:48:46;96278.59;;;12.79;100.00
43701;BME280;58809;47.984;7.964;2022-11-15T14:51:48;96278.03;;;12.70;100.00
43701;BME280;58809;47.984;7.964;2022-11-15T14:54:49;96271.97;;;12.63;100.00
43701;BME280;58809;47.984;7.964;2022-11-15T14:57:51;96266.75;;;12.57;100.00
43701;BME280;58809;47.984;7.964;2022-11-15T15:00:54;96270.22;;;12.50;100.00
43701;BME280;58809;47.984;7.964;2022-11-15T15:04:03;96262.28;;;12.50;100.00
43701;BME280;58809;47.984;7.964;2022-11-15T15:07:05;96251.28;;;12.47;100.00
43701;BME280;58809;47.984;7.964;2022-11-15T15:10:07;96251.38;;;12.33;100.00
43701;BME280;58809;47.984;7.964;2022-11-15T15:13:28;96242.88;;;12.25;100.00
43701;BME280;58809;47.984;7.964;2022-11-15T15:16:31;96252.28;;;12.21;100.00
43701;BME280;58809;47.984;7.964;2022-11-15T15:19:33;96245.81;;;12.17;100.00
43701;BME280;58809;47.984;7.964;2022-11-15T15:22:34;96236.41;;;12.14;100.00
43701;BME280;58809;47.984;7.964;2022-11-15T15:25:36;96234.00;;;12.12;100.00
43701;BME280;58809;47.984;7.964;2022-11-15T15:28:38;96232.56;;;12.10;100.00
43701;BME280;58809;47.984;7.964;2022-11-15T15:31:41;96226.28;;;12.04;100.00
43701;BME280;58809;47.984;7.964;2022-11-15T15:34:42;96217.34;;;11.99;100.00
43701;BME280;58809;47.984;7.964;2022-11-15T15:37:45;96214.13;;;11.97;100.00
43701;BME280;58809;47.984;7.964;2022-11-15T15:40:47;96210.88;;;11.94;100.00
43701;BME280;58809;47.984;7.964;2022-11-15T15:43:52;96202.53;;;11.91;100.00
43701;BME280;58809;47.984;7.964;2022-11-15T15:46:53;96202.53;;;11.91;100.00
43701;BME280;58809;47.984;7.964;2022-11-15T15:49:55;96199.03;;;11.90;100.00
43701;BME280;58809;47.984;7.964;2022-11-15T15:52:58;96200.06;;;11.89;100.00
43701;BME280;58809;47.984;7.964;2022-11-15T15:56:00;96197.00;;;11.86;100.00
43701;BME280;58809;47.984;7.964;2022-11-15T15:59:02;96193.19;;;11.82;100.00
43701;BME280;58809;47.984;7.964;2022-11-15T16:02:04;96197.69;;;11.74;100.00
43701;BME280;58809;47.984;7.964;2022-11-15T16:05:06;96187.50;;;11.71;100.00
43701;BME280;58809;47.984;7.964;2022-11-15T16:08:23;96183.66;;;11.67;100.00
43701;BME280;58809;47.984;7.964;2022-11-15T16:11:28;96177.19;;;11.63;100.00
43701;BME280;58809;47.984;7.964;2022-11-15T16:14:31;96185.34;;;11.62;100.00
43701;BME280;58809;47.984;7.964;2022-11-15T16:17:37;96178.59;;;11.59;100.00
43701;BME280;58809;47.984;7.964;2022-11-15T16:20:44;96183.31;;;11.57;100.00
43701;BME280;58809;47.984;7.964;2022-11-15T16:23:46;96179.47;;;11.53;100.00
43701;BME280;58809;47.984;7.964;2022-11-15T16:26:49;96172.13;;;11.55;100.00
43701;BME280;58809;47.984;7.964;2022-11-15T16:29:51;96171.91;;;11.56;100.00
43701;BME280;58809;47.984;7.964;2022-11-15T16:32:53;96166.63;;;11.56;100.00
43701;BME280;58809;47.984;7.964;2022-11-15T16:35:55;96165.59;;;11.58;100.00
43701;BME280;58809;47.984;7.964;2022-11-15T16:38:57;96162.94;;;11.58;100.00
43701;BME280;58809;47.984;7.964;2022-11-15T16:41:59;96166.63;;;11.56;100.00
43701;BME280;58809;47.984;7.964;2022-11-15T16:45:01;96166.63;;;11.56;100.00
43701;BME280;58809;47.984;7.964;2022-11-15T16:48:03;96176.78;;;11.60;100.00
43701;BME280;58809;47.984;7.964;2022-11-15T16:51:05;96167.81;;;11.61;100.00
43701;BME280;58809;47.984;7.964;2022-11-15T16:54:07;96169.81;;;11.65;100.00
43701;BME280;58809;47.984;7.964;2022-11-15T16:57:09;96169.22;;;11.63;100.00
43701;BME280;58809;47.984;7.964;2022-11-15T17:00:12;96165.38;;;11.59;100.00
43701;BME280;58809;47.984;7.964;2022-11-15T17:03:16;96160.72;;;11.54;100.00
43701;BME280;58809;47.984;7.964;2022-11-15T17:06:18;96150.75;;;11.50;100.00
43701;BME280;58809;47.984;7.964;2022-11-15T17:09:21;96152.78;;;11.48;100.00
43701;BME280;58809;47.984;7.964;2022-11-15T17:12:26;96156.09;;;11.43;100.00
43701;BME280;58809;47.984;7.964;2022-11-15T17:15:28;96150.81;;;11.36;100.00
43701;BME280;58809;47.984;7.964;2022-11-15T17:18:30;96146.97;;;11.32;100.00
43701;BME280;58809;47.984;7.964;2022-11-15T17:21:32;96149.19;;;11.35;100.00
43701;BME280;58809;47.984;7.964;2022-11-15T17:24:34;96143.69;;;11.37;100.00
43701;BME280;58809;47.984;7.964;2022-11-15T17:27:36;96145.09;;;11.40;100.00
43701;BME280;58809;47.984;7.964;2022-11-15T17:30:40;96152.00;;;11.41;100.00
43701;BME280;58809;47.984;7.964;2022-11-15T17:33:42;96146.50;;;11.42;100.00
43701;BME280;58809;47.984;7.964;2022-11-15T17:36:43;96145.72;;;11.42;100.00
43701;BME280;58809;47.984;7.964;2022-11-15T17:39:45;96142.88;;;11.36;100.00
43701;BME280;58809;47.984;7.964;2022-11-15T17:42:47;96143.09;;;11.35;100.00
43701;BME280;58809;47.984;7.964;2022-11-15T17:45:49;96137.41;;;11.31;100.00
43701;BME280;58809;47.984;7.964;2022-11-15T17:48:50;96128.47;;;11.26;100.00
43701;BME280;58809;47.984;7.964;2022-11-15T17:51:52;96125.22;;;11.24;100.00
43701;BME280;58809;47.984;7.964;2022-11-15T17:54:53;96122.78;;;11.22;100.00
43701;BME280;58809;47.984;7.964;2022-11-15T17:57:55;96120.34;;;11.21;100.00
43701;BME280;58809;47.984;7.964;2022-11-15T18:01:22;96110.19;;;11.17;100.00
43701;BME280;58809;47.984;7.964;2022-11-15T18:04:24;96103.91;;;11.12;100.00
43701;BME280;58809;47.984;7.964;2022-11-15T18:07:28;96100.47;;;11.05;100.00
43701;BME280;58809;47.984;7.964;2022-11-15T18:10:30;96107.16;;;11.07;100.00
43701;BME280;58809;47.984;7.964;2022-11-15T18:14:07;96104.31;;;11.09;100.00
43701;BME280;58809;47.984;7.964;2022-11-15T18:17:08;96111.66;;;11.07;100.00
43701;BME280;58809;47.984;7.964;2022-11-15T18:20:10;96116.34;;;11.05;100.00
43701;BME280;58809;47.984;7.964;2022-11-15T18:23:12;96111.44;;;11.08;100.00
43701;BME280;58809;47.984;7.964;2022-11-15T18:26:15;96106.19;;;11.02;100.00
43701;BME280;58809;47.984;7.964;2022-11-15T18:29:18;96099.69;;;10.97;100.00
43701;BME280;58809;47.984;7.964;2022-11-15T18:32:20;96102.94;;;11.00;100.00
43701;BME280;58809;47.984;7.964;2022-11-15T18:35:22;96099.25;;;11.01;100.00